createdAt,value
2018-12-11T00:00:31.018Z,4.83
2018-12-11T00:02:59.666Z,5.60
2018-12-11T00:05:28.551Z,5.13
2018-12-11T00:07:57.206Z,5.83
2018-12-11T00:10:25.842Z,5.70
2018-12-11T00:12:54.474Z,6.03
2018-12-11T00:15:23.097Z,5.50
2018-12-11T00:17:51.714Z,5.30
2018-12-11T00:20:20.313Z,5.53
2018-12-11T00:22:48.906Z,5.27
2018-12-11T00:25:17.537Z,5.77
2018-12-11T00:27:46.164Z,4.93
2018-12-11T00:30:14.791Z,5.03
2018-12-11T00:32:43.390Z,5.07
2018-12-11T00:35:11.990Z,5.23
2018-12-11T00:37:40.606Z,5.03
2018-12-11T00:40:09.400Z,6.20
2018-12-11T00:42:37.985Z,5.17
2018-12-11T00:45:06.859Z,5.07
2018-12-11T00:47:35.502Z,4.63
2018-12-11T00:50:04.469Z,5.93
2018-12-11T00:52:33.102Z,4.80
2018-12-11T00:55:01.712Z,5.50
2018-12-11T00:57:30.443Z,5.83
2018-12-11T00:59:59.055Z,6.00
2018-12-11T01:02:27.746Z,6.10
2018-12-11T01:04:56.371Z,5.13
2018-12-11T01:07:24.984Z,5.57
2018-12-11T01:09:53.629Z,5.67
2018-12-11T01:12:22.254Z,5.67
2018-12-11T01:14:50.862Z,5.53
2018-12-11T01:17:19.491Z,5.10
2018-12-11T01:19:48.097Z,5.07
2018-12-11T01:22:16.727Z,5.10
2018-12-11T01:24:45.337Z,6.33
2018-12-11T01:27:13.982Z,6.30
2018-12-11T01:29:42.589Z,4.93
2018-12-11T01:32:11.196Z,5.47
2018-12-11T01:34:39.807Z,4.97
2018-12-11T01:37:08.425Z,5.20
2018-12-11T01:39:37.522Z,5.07
2018-12-11T01:42:06.405Z,5.67
2018-12-11T01:44:35.030Z,4.93
2018-12-11T01:47:04.410Z,5.40
2018-12-11T01:49:33.046Z,5.10
2018-12-11T01:52:01.689Z,5.37
2018-12-11T01:54:30.326Z,4.73
2018-12-11T01:56:58.933Z,5.13
2018-12-11T01:59:28.257Z,5.23
2018-12-11T02:01:56.862Z,5.27
2018-12-11T02:04:25.480Z,5.03
2018-12-11T02:06:54.138Z,4.80
2018-12-11T02:09:22.784Z,5.57
2018-12-11T02:11:51.443Z,4.70
2018-12-11T02:14:20.214Z,4.90
2018-12-11T02:16:48.836Z,4.73
2018-12-11T02:19:17.466Z,4.40
2018-12-11T02:21:46.099Z,4.33
2018-12-11T02:24:14.730Z,4.80
2018-12-11T02:26:43.356Z,4.87
2018-12-11T02:29:11.975Z,4.60
2018-12-11T02:31:40.594Z,5.43
2018-12-11T02:34:09.213Z,5.03
2018-12-11T02:36:37.859Z,4.77
2018-12-11T02:39:08.121Z,4.40
2018-12-11T02:41:36.814Z,3.77
2018-12-11T02:44:05.541Z,3.80
2018-12-11T02:46:34.129Z,4.83
2018-12-11T02:49:02.743Z,4.20
2018-12-11T02:51:31.334Z,3.87
2018-12-11T02:53:59.943Z,4.17
2018-12-11T02:56:28.671Z,4.27
2018-12-11T02:58:57.280Z,5.07
2018-12-11T03:01:25.879Z,3.93
2018-12-11T03:03:54.772Z,4.40
2018-12-11T03:06:23.406Z,4.33
2018-12-11T03:08:52.015Z,4.23
2018-12-11T03:11:20.766Z,3.90
2018-12-11T03:13:49.367Z,4.67
2018-12-11T03:16:18.115Z,4.03
2018-12-11T03:18:46.717Z,4.00
2018-12-11T03:21:15.326Z,4.37
2018-12-11T03:23:43.931Z,4.30
2018-12-11T03:26:12.543Z,4.27
2018-12-11T03:28:41.150Z,4.23
2018-12-11T03:31:09.766Z,3.97
2018-12-11T03:33:38.394Z,3.90
2018-12-11T03:36:07.001Z,4.50
2018-12-11T03:38:35.617Z,4.87
2018-12-11T03:41:05.140Z,3.67
2018-12-11T03:43:34.613Z,3.47
2018-12-11T03:46:03.230Z,3.57
2018-12-11T03:48:31.830Z,3.27
2018-12-11T03:51:00.459Z,4.37
2018-12-11T03:53:29.068Z,4.43
2018-12-11T03:55:57.692Z,4.37
2018-12-11T03:58:26.309Z,4.03
2018-12-11T04:00:54.936Z,4.53
2018-12-11T04:03:23.724Z,7.03
2018-12-11T04:05:55.127Z,7.30
2018-12-11T04:08:23.736Z,8.30
2018-12-11T04:10:52.335Z,7.40
2018-12-11T04:13:20.932Z,6.63
2018-12-11T04:15:49.551Z,6.17
2018-12-11T04:18:18.742Z,5.30
2018-12-11T04:20:47.363Z,4.43
2018-12-11T04:23:16.001Z,4.57
2018-12-11T04:25:44.607Z,4.27
2018-12-11T04:28:13.219Z,4.40
2018-12-11T04:30:41.833Z,4.70
2018-12-11T04:33:10.479Z,3.73
2018-12-11T04:35:39.099Z,4.13
2018-12-11T04:38:07.678Z,4.70
2018-12-11T04:40:36.303Z,4.00
2018-12-11T04:43:04.958Z,3.63
2018-12-11T04:45:33.701Z,4.07
2018-12-11T04:48:02.917Z,3.97
2018-12-11T04:50:31.536Z,3.83
2018-12-11T04:53:00.146Z,3.97
2018-12-11T04:55:28.841Z,3.70
2018-12-11T04:57:57.432Z,3.50
2018-12-11T05:00:29.972Z,4.67
2018-12-11T05:02:58.594Z,3.60
2018-12-11T05:05:27.206Z,3.80
2018-12-11T05:07:55.814Z,4.10
2018-12-11T05:10:24.506Z,3.70
2018-12-11T05:12:53.105Z,4.40
2018-12-11T05:15:21.734Z,3.93
2018-12-11T05:17:50.343Z,3.47
2018-12-11T05:20:18.941Z,4.03
2018-12-11T05:22:47.533Z,3.60
2018-12-11T05:25:16.113Z,3.30
2018-12-11T05:27:44.702Z,3.63
2018-12-11T05:30:13.315Z,3.73
2018-12-11T05:32:41.925Z,3.13
2018-12-11T05:35:11.117Z,3.03
2018-12-11T05:37:39.750Z,3.17
2018-12-11T05:40:08.516Z,4.00
2018-12-11T05:42:37.122Z,3.57
2018-12-11T05:45:06.014Z,3.73
2018-12-11T05:47:34.641Z,3.27
2018-12-11T05:50:03.467Z,3.53
2018-12-11T05:52:32.087Z,3.37
2018-12-11T05:55:00.685Z,3.67
2018-12-11T05:57:29.330Z,3.23
2018-12-11T05:59:57.934Z,3.10
2018-12-11T06:02:26.545Z,4.23
2018-12-11T06:04:55.175Z,50.77
2018-12-11T06:07:23.826Z,77.63
2018-12-11T06:09:52.457Z,65.20
2018-12-11T06:12:21.087Z,30.80
2018-12-11T06:14:49.717Z,44.47
2018-12-11T06:17:18.331Z,31.37
2018-12-11T06:19:46.982Z,25.27
2018-12-11T06:22:15.604Z,21.07
2018-12-11T06:24:44.235Z,13.97
2018-12-11T06:27:12.858Z,19.13
2018-12-11T06:29:41.498Z,17.03
2018-12-11T06:32:10.101Z,16.20
2018-12-11T06:34:38.734Z,13.13
2018-12-11T06:37:07.372Z,9.47
2018-12-11T06:39:36.001Z,5.10
2018-12-11T06:42:04.977Z,6.60
2018-12-11T06:44:33.713Z,5.77
2018-12-11T06:47:02.365Z,7.30
2018-12-11T06:49:31.009Z,7.07
2018-12-11T06:51:59.820Z,6.13
2018-12-11T06:54:28.530Z,5.77
2018-12-11T06:56:57.162Z,5.90
2018-12-11T06:59:25.797Z,6.47
2018-12-11T07:01:54.413Z,6.17
2018-12-11T07:04:23.064Z,6.80
2018-12-11T07:06:51.705Z,5.43
2018-12-11T07:09:20.335Z,5.63
2018-12-11T07:11:48.959Z,5.40
2018-12-11T07:14:17.614Z,5.10
2018-12-11T07:16:46.306Z,4.97
2018-12-11T07:19:14.997Z,4.53
2018-12-11T07:21:43.753Z,5.93
2018-12-11T07:24:12.452Z,4.93
2018-12-11T07:26:41.081Z,5.17
2018-12-11T07:29:09.704Z,5.07
2018-12-11T07:31:38.332Z,5.80
2018-12-11T07:34:06.958Z,4.70
2018-12-11T07:36:35.597Z,5.80
2018-12-11T07:39:05.502Z,5.30
2018-12-11T07:41:34.129Z,6.03
2018-12-11T07:44:02.920Z,6.43
2018-12-11T07:46:31.543Z,6.37
2018-12-11T07:49:00.176Z,5.87
2018-12-11T07:51:28.807Z,5.77
2018-12-11T07:53:57.547Z,5.50
2018-12-11T07:56:26.146Z,4.97
2018-12-11T07:58:54.790Z,5.30
2018-12-11T08:01:23.421Z,5.10
2018-12-11T08:03:52.063Z,5.10
2018-12-11T08:06:20.671Z,6.00
2018-12-11T08:08:49.306Z,5.67
2018-12-11T08:11:17.926Z,4.80
2018-12-11T08:13:46.561Z,5.37
2018-12-11T08:16:16.246Z,5.60
2018-12-11T08:18:44.877Z,4.90
2018-12-11T08:21:13.525Z,5.73
2018-12-11T08:23:42.231Z,5.50
2018-12-11T08:26:11.137Z,6.30
2018-12-11T08:28:40.444Z,6.03
2018-12-11T08:31:09.264Z,5.97
2018-12-11T08:33:37.898Z,6.60
2018-12-11T08:36:06.547Z,6.00
2018-12-11T08:38:35.176Z,6.00
2018-12-11T08:41:03.797Z,6.17
2018-12-11T08:43:32.403Z,5.97
2018-12-11T08:46:01.026Z,6.70
2018-12-11T08:48:29.635Z,6.57
2018-12-11T08:50:58.234Z,6.77
2018-12-11T08:53:27.057Z,7.47
2018-12-11T08:55:55.713Z,6.00
2018-12-11T08:58:24.838Z,6.50
2018-12-11T09:00:53.610Z,7.07
2018-12-11T09:03:22.222Z,6.13
2018-12-11T09:05:50.844Z,6.17
2018-12-11T09:08:19.482Z,6.73
2018-12-11T09:10:48.079Z,7.10
2018-12-11T09:13:16.685Z,6.67
2018-12-11T09:15:45.304Z,6.80
2018-12-11T09:18:13.910Z,6.80
2018-12-11T09:20:42.530Z,6.87
2018-12-11T09:23:11.142Z,6.03
2018-12-11T09:25:39.768Z,6.27
2018-12-11T09:28:11.191Z,6.67
2018-12-11T09:30:39.032Z,6.43
2018-12-11T09:33:07.664Z,6.60
2018-12-11T09:35:36.259Z,6.47
2018-12-11T09:38:04.873Z,7.17
2018-12-11T09:40:33.501Z,6.90
2018-12-11T09:43:02.103Z,5.77
2018-12-11T09:45:30.693Z,6.40
2018-12-11T09:47:59.286Z,6.83
2018-12-11T09:50:27.886Z,6.73
2018-12-11T09:52:56.507Z,6.40
2018-12-11T09:55:25.131Z,6.90
2018-12-11T09:57:53.723Z,6.50
2018-12-11T10:00:25.714Z,6.60
2018-12-11T10:02:53.003Z,7.07
2018-12-11T10:05:21.633Z,6.73
2018-12-11T10:07:50.264Z,6.40
2018-12-11T10:10:18.911Z,6.07
2018-12-11T10:12:47.499Z,6.03
2018-12-11T10:15:16.154Z,6.23
2018-12-11T10:17:44.775Z,5.93
2018-12-11T10:20:14.101Z,6.20
2018-12-11T10:22:42.843Z,5.90
2018-12-11T10:25:11.528Z,5.40
2018-12-11T10:27:40.181Z,5.40
2018-12-11T10:30:09.969Z,5.27
2018-12-11T10:32:38.605Z,5.20
2018-12-11T10:35:07.541Z,4.93
2018-12-11T10:37:36.145Z,4.80
2018-12-11T10:40:05.123Z,4.87
2018-12-11T10:42:33.723Z,4.07
2018-12-11T10:45:02.356Z,4.13
2018-12-11T10:47:31.010Z,3.93
2018-12-11T10:49:59.677Z,3.93
2018-12-11T10:52:28.298Z,4.03
2018-12-11T10:54:56.920Z,4.27
2018-12-11T10:57:25.556Z,4.07
2018-12-11T10:59:54.174Z,4.10
2018-12-11T11:02:25.684Z,4.33
2018-12-11T11:04:54.315Z,3.80
2018-12-11T11:07:23.099Z,4.10
2018-12-11T11:09:51.752Z,4.10
2018-12-11T11:12:20.415Z,3.73
2018-12-11T11:14:49.168Z,3.87
2018-12-11T11:17:18.454Z,4.50
2018-12-11T11:19:47.055Z,4.00
2018-12-11T11:22:15.691Z,3.67
2018-12-11T11:24:44.321Z,4.13
2018-12-11T11:27:12.954Z,3.80
2018-12-11T11:29:41.589Z,4.47
2018-12-11T11:32:10.220Z,3.70
2018-12-11T11:34:40.954Z,3.93
2018-12-11T11:37:09.575Z,3.73
2018-12-11T11:39:38.186Z,3.53
2018-12-11T11:42:06.821Z,4.00
2018-12-11T11:44:35.458Z,3.53
2018-12-11T11:47:04.239Z,3.10
2018-12-11T11:49:32.891Z,3.60
2018-12-11T11:52:01.538Z,2.97
2018-12-11T11:54:30.175Z,3.53
2018-12-11T11:56:58.811Z,3.37
2018-12-11T11:59:27.450Z,3.70
2018-12-11T12:01:56.340Z,3.50
2018-12-11T12:04:24.962Z,3.50
2018-12-11T12:06:53.615Z,3.30
2018-12-11T12:09:22.230Z,3.33
2018-12-11T12:11:50.909Z,3.23
2018-12-11T12:14:19.530Z,3.27
2018-12-11T12:16:48.163Z,3.70
2018-12-11T12:19:16.777Z,4.23
2018-12-11T12:21:45.384Z,3.33
2018-12-11T12:24:14.021Z,3.67
2018-12-11T12:26:42.644Z,3.63
2018-12-11T12:29:11.259Z,3.13
2018-12-11T12:31:39.896Z,3.20
2018-12-11T12:34:08.542Z,2.70
2018-12-11T12:36:37.189Z,3.50
2018-12-11T12:39:08.361Z,2.90
2018-12-11T12:41:37.006Z,2.73
2018-12-11T12:44:05.626Z,2.67
2018-12-11T12:46:34.404Z,2.23
2018-12-11T12:49:03.017Z,3.00
2018-12-11T12:51:31.790Z,2.30
2018-12-11T12:54:00.426Z,2.37
2018-12-11T12:56:29.510Z,2.40
2018-12-11T12:58:58.165Z,2.10
2018-12-11T13:01:26.782Z,2.47
2018-12-11T13:03:55.618Z,2.83
2018-12-11T13:06:24.541Z,1.93
2018-12-11T13:08:54.328Z,2.33
2018-12-11T13:11:22.964Z,2.90
2018-12-11T13:13:51.595Z,2.50
2018-12-11T13:16:20.242Z,2.93
2018-12-11T13:18:48.879Z,2.77
2018-12-11T13:21:17.522Z,2.53
2018-12-11T13:23:46.146Z,2.20
2018-12-11T13:26:14.793Z,2.50
2018-12-11T13:28:43.412Z,2.40
2018-12-11T13:31:12.033Z,2.30
2018-12-11T13:33:40.672Z,2.10
2018-12-11T13:36:09.334Z,3.00
2018-12-11T13:38:37.958Z,2.70
2018-12-11T13:41:06.615Z,2.33
2018-12-11T13:43:35.380Z,2.10
2018-12-11T13:46:04.169Z,2.40
2018-12-11T13:48:33.841Z,3.00
2018-12-11T13:51:02.512Z,2.57
2018-12-11T13:53:31.141Z,2.47
2018-12-11T13:55:59.756Z,2.73
2018-12-11T13:58:28.373Z,2.93
2018-12-11T14:00:57.028Z,2.70
2018-12-11T14:03:25.809Z,2.70
2018-12-11T14:05:54.429Z,2.97
2018-12-11T14:08:23.062Z,2.70
2018-12-11T14:10:51.676Z,2.57
2018-12-11T14:13:20.310Z,2.53
2018-12-11T14:15:48.949Z,3.00
2018-12-11T14:18:17.601Z,2.73
2018-12-11T14:20:46.235Z,3.17
2018-12-11T14:23:14.896Z,2.03
2018-12-11T14:25:43.534Z,2.40
2018-12-11T14:28:12.977Z,2.93
2018-12-11T14:30:41.616Z,2.63
2018-12-11T14:33:10.249Z,2.90
2018-12-11T14:35:38.904Z,2.80
2018-12-11T14:38:07.541Z,2.93
2018-12-11T14:40:36.200Z,3.03
2018-12-11T14:43:04.843Z,2.70
2018-12-11T14:45:33.487Z,2.70
2018-12-11T14:48:02.141Z,2.87
2018-12-11T14:50:30.837Z,2.93
2018-12-11T14:52:59.494Z,3.10
2018-12-11T14:55:28.123Z,3.33
2018-12-11T14:57:56.774Z,2.67
2018-12-11T15:00:25.395Z,3.53
2018-12-11T15:02:54.275Z,2.90
2018-12-11T15:05:22.930Z,3.30
2018-12-11T15:07:51.865Z,3.40
2018-12-11T15:10:20.639Z,3.73
2018-12-11T15:12:49.914Z,3.13
2018-12-11T15:15:18.529Z,2.90
2018-12-11T15:17:47.154Z,3.77
2018-12-11T15:20:15.866Z,3.20
2018-12-11T15:22:44.494Z,3.20
2018-12-11T15:25:13.135Z,2.47
2018-12-11T15:27:41.730Z,3.27
2018-12-11T15:30:10.351Z,3.23
2018-12-11T15:32:38.961Z,2.90
2018-12-11T15:35:07.565Z,3.33
2018-12-11T15:37:36.186Z,2.80
2018-12-11T15:40:05.558Z,2.90
2018-12-11T15:42:34.370Z,3.10
2018-12-11T15:45:03.137Z,2.50
2018-12-11T15:47:32.012Z,2.53
2018-12-11T15:50:00.859Z,2.83
2018-12-11T15:52:29.533Z,2.80
2018-12-11T15:54:58.297Z,2.43
2018-12-11T15:57:26.945Z,2.57
2018-12-11T15:59:55.605Z,2.60
2018-12-11T16:02:24.307Z,2.60
2018-12-11T16:04:54.120Z,3.00
2018-12-11T16:07:22.802Z,2.80
2018-12-11T16:09:52.356Z,2.43
2018-12-11T16:12:21.755Z,2.20
2018-12-11T16:14:50.483Z,2.50
2018-12-11T16:17:19.747Z,2.70
2018-12-11T16:19:49.861Z,2.20
2018-12-11T16:22:18.675Z,2.47
2018-12-11T16:24:48.597Z,2.50
2018-12-11T16:27:17.731Z,5.10
2018-12-11T16:29:46.623Z,4.60
2018-12-11T16:32:16.045Z,3.43
2018-12-11T16:34:45.833Z,4.27
2018-12-11T16:37:15.059Z,4.07
2018-12-11T16:39:44.320Z,3.10
2018-12-11T16:42:12.936Z,3.70
2018-12-11T16:44:41.558Z,3.87
2018-12-11T16:47:10.672Z,2.90
2018-12-11T16:49:39.286Z,2.90
2018-12-11T16:52:07.986Z,3.53
2018-12-11T16:54:37.280Z,2.33
2018-12-11T16:57:05.958Z,3.10
2018-12-11T16:59:34.579Z,2.80
2018-12-11T17:02:03.360Z,2.90
2018-12-11T17:04:32.107Z,2.90
2018-12-11T17:07:00.749Z,3.50
2018-12-11T17:09:29.384Z,3.23
2018-12-11T17:11:58.334Z,2.87
2018-12-11T17:14:27.138Z,2.53
2018-12-11T17:16:55.906Z,3.30
2018-12-11T17:19:24.571Z,3.30
2018-12-11T17:21:53.311Z,2.73
2018-12-11T17:24:21.934Z,3.07
2018-12-11T17:26:50.562Z,2.70
2018-12-11T17:29:24.107Z,3.33
2018-12-11T17:31:49.942Z,2.97
2018-12-11T17:34:18.581Z,2.70
2018-12-11T17:36:47.322Z,2.90
2018-12-11T17:39:15.928Z,2.60
2018-12-11T17:41:44.607Z,3.60
2018-12-11T17:44:13.503Z,3.20
2018-12-11T17:46:42.130Z,4.33
2018-12-11T17:49:10.749Z,3.30
2018-12-11T17:51:39.386Z,3.60
2018-12-11T17:54:07.995Z,3.63
2018-12-11T17:56:36.865Z,3.37
2018-12-11T17:59:05.661Z,3.47
2018-12-11T18:01:35.717Z,4.30
2018-12-11T18:04:04.474Z,2.83
2018-12-11T18:06:33.256Z,3.40
2018-12-11T18:09:01.876Z,3.47
2018-12-11T18:11:30.488Z,3.00
2018-12-11T18:13:59.080Z,3.07
2018-12-11T18:16:30.639Z,3.00
2018-12-11T18:18:59.252Z,3.70
2018-12-11T18:21:27.883Z,3.40
2018-12-11T18:23:56.498Z,3.43
2018-12-11T18:26:25.115Z,3.00
2018-12-11T18:28:54.435Z,4.17
2018-12-11T18:31:23.073Z,4.17
2018-12-11T18:33:51.722Z,4.47
2018-12-11T18:36:20.810Z,4.63
2018-12-11T18:38:49.691Z,3.20
2018-12-11T18:41:18.330Z,3.30
2018-12-11T18:43:47.021Z,3.10
2018-12-11T18:46:15.666Z,3.30
2018-12-11T18:48:44.365Z,2.80
2018-12-11T18:51:13.094Z,3.40
2018-12-11T18:53:42.707Z,3.40
2018-12-11T18:56:11.769Z,2.83
2018-12-11T18:58:40.497Z,2.77
2018-12-11T19:01:10.051Z,3.20
2018-12-11T19:03:39.864Z,3.23
2018-12-11T19:06:08.659Z,2.80
2018-12-11T19:08:37.485Z,2.80
2018-12-11T19:11:06.233Z,3.07
2018-12-11T19:13:34.986Z,3.53
2018-12-11T19:16:03.738Z,4.00
2018-12-11T19:18:32.863Z,3.63
2018-12-11T19:21:01.766Z,3.27
2018-12-11T19:23:40.712Z,3.00
2018-12-11T19:26:09.666Z,3.50
2018-12-11T19:28:38.414Z,3.90
2018-12-11T19:31:07.229Z,3.17
2018-12-11T19:33:36.912Z,3.13
2018-12-11T19:36:05.800Z,3.20
2018-12-11T19:38:34.434Z,5.93
2018-12-11T19:41:03.104Z,5.50
2018-12-11T19:43:31.776Z,4.20
2018-12-11T19:46:00.436Z,3.67
2018-12-11T19:48:29.080Z,3.70
2018-12-11T19:50:57.739Z,2.80
2018-12-11T19:53:26.374Z,3.77
2018-12-11T19:55:55.002Z,2.90
2018-12-11T19:58:23.860Z,3.40
2018-12-11T20:00:52.715Z,3.47
2018-12-11T20:03:21.353Z,3.23
2018-12-11T20:05:49.966Z,3.57
2018-12-11T20:08:18.593Z,3.63
2018-12-11T20:10:51.369Z,3.73
2018-12-11T20:13:19.966Z,5.10
2018-12-11T20:15:48.658Z,3.57
2018-12-11T20:18:17.402Z,3.60
2018-12-11T20:20:46.702Z,4.33
2018-12-11T20:23:15.311Z,3.10
2018-12-11T20:25:43.925Z,3.73
2018-12-11T20:28:12.533Z,3.67
2018-12-11T20:30:41.151Z,4.13
2018-12-11T20:33:09.738Z,4.30
2018-12-11T20:35:38.370Z,3.60
2018-12-11T20:38:07.161Z,4.30
2018-12-11T20:40:35.799Z,3.70
2018-12-11T20:43:04.681Z,3.33
2018-12-11T20:45:33.294Z,4.63
2018-12-11T20:48:01.981Z,3.97
2018-12-11T20:50:30.683Z,3.43
2018-12-11T20:52:59.346Z,4.03
2018-12-11T20:55:28.027Z,3.70
2018-12-11T20:57:56.680Z,4.20
2018-12-11T21:00:25.335Z,4.03
2018-12-11T21:02:54.046Z,4.10
2018-12-11T21:05:22.702Z,4.33
2018-12-11T21:07:51.638Z,3.50
2018-12-11T21:10:20.282Z,4.30
2018-12-11T21:12:49.109Z,3.93
2018-12-11T21:15:17.794Z,3.73
2018-12-11T21:17:46.593Z,4.10
2018-12-11T21:20:15.313Z,3.33
2018-12-11T21:22:43.953Z,3.73
2018-12-11T21:25:12.631Z,3.93
2018-12-11T21:27:41.321Z,2.90
2018-12-11T21:30:11.074Z,3.53
2018-12-11T21:32:39.718Z,3.63
2018-12-11T21:35:09.532Z,3.80
2018-12-11T21:37:39.059Z,3.87
2018-12-11T21:40:07.992Z,4.27
2018-12-11T21:42:36.614Z,3.60
2018-12-11T21:45:06.297Z,3.57
2018-12-11T21:47:34.941Z,4.27
2018-12-11T21:50:04.327Z,3.83
2018-12-11T21:52:32.972Z,4.13
2018-12-11T21:55:01.571Z,4.37
2018-12-11T21:57:30.199Z,3.77
2018-12-11T21:59:58.886Z,4.77
2018-12-11T22:02:27.501Z,4.57
2018-12-11T22:04:56.339Z,3.60
2018-12-11T22:07:25.129Z,3.70
2018-12-11T22:09:54.266Z,3.87
2018-12-11T22:12:23.352Z,4.27
2018-12-11T22:14:52.064Z,3.97
2018-12-11T22:17:20.815Z,3.80
2018-12-11T22:19:49.785Z,4.30
2018-12-11T22:22:18.447Z,3.70
2018-12-11T22:24:47.070Z,3.80
2018-12-11T22:27:15.699Z,4.17
2018-12-11T22:29:44.374Z,4.17
2018-12-11T22:32:13.021Z,4.37
2018-12-11T22:34:41.669Z,4.40
2018-12-11T22:37:10.311Z,3.57
2018-12-11T22:39:38.965Z,4.63
2018-12-11T22:42:07.591Z,4.10
2018-12-11T22:44:36.247Z,4.77
2018-12-11T22:47:05.034Z,4.90
2018-12-11T22:49:33.646Z,4.27
2018-12-11T22:52:02.276Z,3.90
2018-12-11T22:54:31.057Z,4.13
2018-12-11T22:56:59.721Z,4.10
2018-12-11T22:59:28.354Z,3.97
2018-12-11T23:01:56.997Z,4.20
2018-12-11T23:04:25.636Z,3.73
2018-12-11T23:06:54.312Z,4.33
2018-12-11T23:09:22.940Z,5.00
2018-12-11T23:11:51.587Z,4.13
2018-12-11T23:14:20.248Z,3.90
2018-12-11T23:16:49.024Z,4.23
2018-12-11T23:19:17.661Z,4.60
2018-12-11T23:21:46.282Z,5.27
2018-12-11T23:24:14.900Z,4.03
2018-12-11T23:26:43.547Z,4.40
2018-12-11T23:29:12.166Z,5.23
2018-12-11T23:31:40.783Z,4.50
2018-12-11T23:34:09.426Z,3.87
2018-12-11T23:36:38.057Z,4.53
2018-12-11T23:39:07.490Z,4.20
2018-12-11T23:41:36.102Z,4.43
2018-12-11T23:44:04.738Z,4.60
2018-12-11T23:46:33.380Z,4.63
2018-12-11T23:49:02.067Z,4.57
2018-12-11T23:51:30.720Z,4.37
2018-12-11T23:53:59.343Z,4.70
2018-12-11T23:56:27.976Z,4.20
2018-12-11T23:58:56.637Z,4.43
